sensor_id;sensor_type;location;lat;lon;timestamp;temperature;humidity
14473;DHT22;7322;50.872;4.386;2024-02-23T00:02:31;18.10;99.90
14473;DHT22;7322;50.872;4.386;2024-02-23T00:05:00;18.10;99.90
14473;DHT22;7322;50.872;4.386;2024-02-23T00:07:34;18.10;99.90
14473;DHT22;7322;50.872;4.386;2024-02-23T00:10:02;18.10;99.90
14473;DHT22;7322;50.872;4.386;2024-02-23T00:12:31;18.00;99.90
14473;DHT22;7322;50.872;4.386;2024-02-23T00:14:58;18.00;99.90
14473;DHT22;7322;50.872;4.386;2024-02-23T00:17:31;18.00;99.90
14473;DHT22;7322;50.872;4.386;2024-02-23T00:19:58;18.00;99.90
14473;DHT22;7322;50.872;4.386;2024-02-23T00:22:29;17.90;99.90
14473;DHT22;7322;50.872;4.386;2024-02-23T00:24:57;17.90;99.90
14473;DHT22;7322;50.872;4.386;2024-02-23T00:27:24;17.80;99.90
14473;DHT22;7322;50.872;4.386;2024-02-23T00:29:53;17.90;99.90
14473;DHT22;7322;50.872;4.386;2024-02-23T00:32:22;17.90;99.90
14473;DHT22;7322;50.872;4.386;2024-02-23T00:34:50;17.80;99.90
14473;DHT22;7322;50.872;4.386;2024-02-23T00:37:18;17.80;99.90
14473;DHT22;7322;50.872;4.386;2024-02-23T00:39:48;17.80;99.90
14473;DHT22;7322;50.872;4.386;2024-02-23T00:42:16;17.80;99.90
14473;DHT22;7322;50.872;4.386;2024-02-23T00:44:44;17.80;99.90
14473;DHT22;7322;50.872;4.386;2024-02-23T00:47:12;17.80;99.90
14473;DHT22;7322;50.872;4.386;2024-02-23T00:49:39;17.80;99.90
14473;DHT22;7322;50.872;4.386;2024-02-23T00:52:10;17.80;99.90
14473;DHT22;7322;50.872;4.386;2024-02-23T00:54:39;17.70;99.90
14473;DHT22;7322;50.872;4.386;2024-02-23T00:57:07;17.70;99.90
14473;DHT22;7322;50.872;4.386;2024-02-23T00:59:34;17.70;99.90
14473;DHT22;7322;50.872;4.386;2024-02-23T01:02:04;17.70;99.90
14473;DHT22;7322;50.872;4.386;2024-02-23T01:04:38;17.70;99.90
14473;DHT22;7322;50.872;4.386;2024-02-23T01:07:06;17.70;99.90
14473;DHT22;7322;50.872;4.386;2024-02-23T01:09:35;17.70;99.90
14473;DHT22;7322;50.872;4.386;2024-02-23T01:12:02;17.70;99.90
14473;DHT22;7322;50.872;4.386;2024-02-23T01:14:29;17.60;99.90
14473;DHT22;7322;50.872;4.386;2024-02-23T01:16:58;17.70;99.90
14473;DHT22;7322;50.872;4.386;2024-02-23T01:19:26;17.70;99.90
14473;DHT22;7322;50.872;4.386;2024-02-23T01:21:56;17.70;99.90
14473;DHT22;7322;50.872;4.386;2024-02-23T01:24:25;17.70;99.90
14473;DHT22;7322;50.872;4.386;2024-02-23T01:26:53;17.60;99.90
14473;DHT22;7322;50.872;4.386;2024-02-23T01:29:20;17.70;99.90
14473;DHT22;7322;50.872;4.386;2024-02-23T01:31:48;17.60;99.90
14473;DHT22;7322;50.872;4.386;2024-02-23T01:34:16;17.60;99.90
14473;DHT22;7322;50.872;4.386;2024-02-23T01:36:43;17.60;99.90
14473;DHT22;7322;50.872;4.386;2024-02-23T01:39:12;17.60;99.90
14473;DHT22;7322;50.872;4.386;2024-02-23T01:41:40;17.60;99.90
14473;DHT22;7322;50.872;4.386;2024-02-23T01:44:11;17.60;99.90
14473;DHT22;7322;50.872;4.386;2024-02-23T01:46:39;17.60;99.90
14473;DHT22;7322;50.872;4.386;2024-02-23T01:49:08;17.60;99.90
14473;DHT22;7322;50.872;4.386;2024-02-23T01:51:35;17.60;99.90
14473;DHT22;7322;50.872;4.386;2024-02-23T01:54:04;17.60;99.90
14473;DHT22;7322;50.872;4.386;2024-02-23T01:56:38;17.60;99.90
14473;DHT22;7322;50.872;4.386;2024-02-23T01:59:06;17.60;99.90
14473;DHT22;7322;50.872;4.386;2024-02-23T02:01:34;17.60;99.90
14473;DHT22;7322;50.872;4.386;2024-02-23T02:04:01;17.60;99.90
14473;DHT22;7322;50.872;4.386;2024-02-23T02:06:29;17.60;99.90
14473;DHT22;7322;50.872;4.386;2024-02-23T02:08:56;17.50;99.90
14473;DHT22;7322;50.872;4.386;2024-02-23T02:11:24;17.50;99.90
14473;DHT22;7322;50.872;4.386;2024-02-23T02:13:53;17.50;99.90
14473;DHT22;7322;50.872;4.386;2024-02-23T02:16:20;17.50;99.90
14473;DHT22;7322;50.872;4.386;2024-02-23T02:18:51;17.50;99.90
14473;DHT22;7322;50.872;4.386;2024-02-23T02:21:18;17.50;99.90
14473;DHT22;7322;50.872;4.386;2024-02-23T02:23:49;17.50;99.90
14473;DHT22;7322;50.872;4.386;2024-02-23T02:26:21;17.50;99.90
14473;DHT22;7322;50.872;4.386;2024-02-23T02:28:48;17.50;99.90
14473;DHT22;7322;50.872;4.386;2024-02-23T02:31:16;17.50;99.90
14473;DHT22;7322;50.872;4.386;2024-02-23T02:33:44;17.50;99.90
14473;DHT22;7322;50.872;4.386;2024-02-23T02:36:13;17.50;99.90
14473;DHT22;7322;50.872;4.386;2024-02-23T02:38:45;17.50;99.90
14473;DHT22;7322;50.872;4.386;2024-02-23T02:41:12;17.50;99.90
14473;DHT22;7322;50.872;4.386;2024-02-23T02:43:39;17.50;99.90
14473;DHT22;7322;50.872;4.386;2024-02-23T02:46:06;17.50;99.90
14473;DHT22;7322;50.872;4.386;2024-02-23T02:48:35;17.50;99.90
14473;DHT22;7322;50.872;4.386;2024-02-23T02:51:02;17.50;99.90
14473;DHT22;7322;50.872;4.386;2024-02-23T02:53:29;17.50;99.90
14473;DHT22;7322;50.872;4.386;2024-02-23T02:55:56;17.50;99.90
14473;DHT22;7322;50.872;4.386;2024-02-23T02:58:31;17.50;99.90
14473;DHT22;7322;50.872;4.386;2024-02-23T03:00:58;17.50;99.90
14473;DHT22;7322;50.872;4.386;2024-02-23T03:03:25;17.50;99.90
14473;DHT22;7322;50.872;4.386;2024-02-23T03:05:54;17.50;99.90
14473;DHT22;7322;50.872;4.386;2024-02-23T03:08:21;17.50;99.90
14473;DHT22;7322;50.872;4.386;2024-02-23T03:10:50;17.50;99.90
14473;DHT22;7322;50.872;4.386;2024-02-23T03:13:18;17.50;99.90
14473;DHT22;7322;50.872;4.386;2024-02-23T03:15:47;17.40;99.90
14473;DHT22;7322;50.872;4.386;2024-02-23T03:18:17;17.40;99.90
14473;DHT22;7322;50.872;4.386;2024-02-23T03:20:50;17.40;99.90
14473;DHT22;7322;50.872;4.386;2024-02-23T03:23:19;17.40;99.90
14473;DHT22;7322;50.872;4.386;2024-02-23T03:25:46;17.40;99.90
14473;DHT22;7322;50.872;4.386;2024-02-23T03:28:13;17.40;99.90
14473;DHT22;7322;50.872;4.386;2024-02-23T03:30:40;17.50;99.90
14473;DHT22;7322;50.872;4.386;2024-02-23T03:33:12;17.40;99.90
14473;DHT22;7322;50.872;4.386;2024-02-23T03:35:39;17.40;99.90
14473;DHT22;7322;50.872;4.386;2024-02-23T03:38:06;17.40;99.90
14473;DHT22;7322;50.872;4.386;2024-02-23T03:40:37;17.40;99.90
14473;DHT22;7322;50.872;4.386;2024-02-23T03:43:10;17.40;99.90
14473;DHT22;7322;50.872;4.386;2024-02-23T03:45:39;17.40;99.90
14473;DHT22;7322;50.872;4.386;2024-02-23T03:48:07;17.40;99.90
14473;DHT22;7322;50.872;4.386;2024-02-23T03:50:35;17.40;99.90
14473;DHT22;7322;50.872;4.386;2024-02-23T03:53:06;17.40;99.90
14473;DHT22;7322;50.872;4.386;2024-02-23T03:55:36;17.40;99.90
14473;DHT22;7322;50.872;4.386;2024-02-23T03:58:05;17.40;99.90
14473;DHT22;7322;50.872;4.386;2024-02-23T04:00:32;17.40;99.90
14473;DHT22;7322;50.872;4.386;2024-02-23T04:03:03;17.40;99.90
14473;DHT22;7322;50.872;4.386;2024-02-23T04:05:31;17.40;99.90
14473;DHT22;7322;50.872;4.386;2024-02-23T04:07:59;17.40;99.90
14473;DHT22;7322;50.872;4.386;2024-02-23T04:10:26;17.40;99.90
14473;DHT22;7322;50.872;4.386;2024-02-23T04:12:57;17.40;99.90
14473;DHT22;7322;50.872;4.386;2024-02-23T04:15:24;17.40;99.90
14473;DHT22;7322;50.872;4.386;2024-02-23T04:17:51;17.40;99.90
14473;DHT22;7322;50.872;4.386;2024-02-23T04:20:18;17.40;99.90
14473;DHT22;7322;50.872;4.386;2024-02-23T04:22:46;17.40;99.90
14473;DHT22;7322;50.872;4.386;2024-02-23T04:25:13;17.40;99.90
14473;DHT22;7322;50.872;4.386;2024-02-23T04:27:41;17.40;99.90
14473;DHT22;7322;50.872;4.386;2024-02-23T04:30:16;17.40;99.90
14473;DHT22;7322;50.872;4.386;2024-02-23T04:32:45;17.40;99.90
14473;DHT22;7322;50.872;4.386;2024-02-23T04:35:13;17.40;99.90
14473;DHT22;7322;50.872;4.386;2024-02-23T04:37:43;17.40;99.90
14473;DHT22;7322;50.872;4.386;2024-02-23T04:40:11;17.40;99.90
14473;DHT22;7322;50.872;4.386;2024-02-23T04:42:38;17.40;99.90
14473;DHT22;7322;50.872;4.386;2024-02-23T04:45:05;17.40;99.90
14473;DHT22;7322;50.872;4.386;2024-02-23T04:47:36;17.40;99.90
14473;DHT22;7322;50.872;4.386;2024-02-23T04:50:06;17.40;99.90
14473;DHT22;7322;50.872;4.386;2024-02-23T04:52:36;17.40;99.90
14473;DHT22;7322;50.872;4.386;2024-02-23T04:55:04;17.40;99.90
14473;DHT22;7322;50.872;4.386;2024-02-23T04:57:33;17.40;99.90
14473;DHT22;7322;50.872;4.386;2024-02-23T05:00:02;17.40;99.90
14473;DHT22;7322;50.872;4.386;2024-02-23T05:02:32;17.40;99.90
14473;DHT22;7322;50.872;4.386;2024-02-23T05:05:02;17.40;99.90
14473;DHT22;7322;50.872;4.386;2024-02-23T05:07:30;17.30;99.90
14473;DHT22;7322;50.872;4.386;2024-02-23T05:09:57;17.30;99.90
14473;DHT22;7322;50.872;4.386;2024-02-23T05:12:26;17.40;99.90
14473;DHT22;7322;50.872;4.386;2024-02-23T05:14:54;17.30;99.90
14473;DHT22;7322;50.872;4.386;2024-02-23T05:17:21;17.30;99.90
14473;DHT22;7322;50.872;4.386;2024-02-23T05:19:48;17.30;99.90
14473;DHT22;7322;50.872;4.386;2024-02-23T05:22:17;17.30;99.90
14473;DHT22;7322;50.872;4.386;2024-02-23T05:24:45;17.30;99.90
14473;DHT22;7322;50.872;4.386;2024-02-23T05:27:14;17.30;99.90
14473;DHT22;7322;50.872;4.386;2024-02-23T05:29:50;17.30;99.90
14473;DHT22;7322;50.872;4.386;2024-02-23T05:32:23;17.40;99.90
14473;DHT22;7322;50.872;4.386;2024-02-23T05:34:52;17.30;99.90
14473;DHT22;7322;50.872;4.386;2024-02-23T05:37:25;17.30;99.90
14473;DHT22;7322;50.872;4.386;2024-02-23T05:39:53;17.30;99.90
14473;DHT22;7322;50.872;4.386;2024-02-23T05:42:20;17.30;99.90
14473;DHT22;7322;50.872;4.386;2024-02-23T05:44:47;17.30;99.90
14473;DHT22;7322;50.872;4.386;2024-02-23T05:47:15;17.30;99.90
14473;DHT22;7322;50.872;4.386;2024-02-23T05:49:44;17.30;99.90
14473;DHT22;7322;50.872;4.386;2024-02-23T05:52:14;17.30;99.90
14473;DHT22;7322;50.872;4.386;2024-02-23T05:54:42;17.40;99.90
14473;DHT22;7322;50.872;4.386;2024-02-23T05:57:10;17.40;99.90
14473;DHT22;7322;50.872;4.386;2024-02-23T05:59:38;17.70;99.90
14473;DHT22;7322;50.872;4.386;2024-02-23T06:02:07;17.90;99.90
14473;DHT22;7322;50.872;4.386;2024-02-23T06:04:35;18.20;99.90
14473;DHT22;7322;50.872;4.386;2024-02-23T06:07:06;18.40;99.90
14473;DHT22;7322;50.872;4.386;2024-02-23T06:09:35;18.60;99.90
14473;DHT22;7322;50.872;4.386;2024-02-23T06:12:03;18.70;99.90
14473;DHT22;7322;50.872;4.386;2024-02-23T06:14:31;18.90;99.90
14473;DHT22;7322;50.872;4.386;2024-02-23T06:17:03;19.10;99.90
14473;DHT22;7322;50.872;4.386;2024-02-23T06:19:29;19.40;99.90
14473;DHT22;7322;50.872;4.386;2024-02-23T06:22:04;19.60;99.90
14473;DHT22;7322;50.872;4.386;2024-02-23T06:24:33;19.80;99.90
14473;DHT22;7322;50.872;4.386;2024-02-23T06:27:10;19.80;99.90
14473;DHT22;7322;50.872;4.386;2024-02-23T06:29:37;19.90;99.90
14473;DHT22;7322;50.872;4.386;2024-02-23T06:32:10;19.90;99.90
14473;DHT22;7322;50.872;4.386;2024-02-23T06:34:39;19.90;99.90
14473;DHT22;7322;50.872;4.386;2024-02-23T06:37:10;19.90;99.90
14473;DHT22;7322;50.872;4.386;2024-02-23T06:39:48;20.00;99.90
14473;DHT22;7322;50.872;4.386;2024-02-23T06:42:28;20.00;99.90
14473;DHT22;7322;50.872;4.386;2024-02-23T06:44:55;20.00;99.90
14473;DHT22;7322;50.872;4.386;2024-02-23T06:47:23;19.90;99.90
14473;DHT22;7322;50.872;4.386;2024-02-23T06:49:50;19.90;99.90
14473;DHT22;7322;50.872;4.386;2024-02-23T06:52:18;19.90;99.90
14473;DHT22;7322;50.872;4.386;2024-02-23T06:54:45;19.80;99.90
14473;DHT22;7322;50.872;4.386;2024-02-23T06:57:12;19.80;99.90
14473;DHT22;7322;50.872;4.386;2024-02-23T06:59:42;19.80;99.90
14473;DHT22;7322;50.872;4.386;2024-02-23T07:02:09;19.80;99.90
14473;DHT22;7322;50.872;4.386;2024-02-23T07:04:37;19.70;99.90
14473;DHT22;7322;50.872;4.386;2024-02-23T07:07:04;19.70;99.90
14473;DHT22;7322;50.872;4.386;2024-02-23T07:09:36;19.70;99.90
14473;DHT22;7322;50.872;4.386;2024-02-23T07:12:03;19.60;99.90
14473;DHT22;7322;50.872;4.386;2024-02-23T07:14:30;19.60;99.90
14473;DHT22;7322;50.872;4.386;2024-02-23T07:16:59;19.50;99.90
14473;DHT22;7322;50.872;4.386;2024-02-23T07:19:26;19.50;99.90
14473;DHT22;7322;50.872;4.386;2024-02-23T07:21:54;19.40;99.90
14473;DHT22;7322;50.872;4.386;2024-02-23T07:24:21;19.40;99.90
14473;DHT22;7322;50.872;4.386;2024-02-23T07:26:49;19.30;99.90
14473;DHT22;7322;50.872;4.386;2024-02-23T07:29:16;19.30;99.90
14473;DHT22;7322;50.872;4.386;2024-02-23T07:31:44;19.20;99.90
14473;DHT22;7322;50.872;4.386;2024-02-23T07:34:13;19.20;99.90
14473;DHT22;7322;50.872;4.386;2024-02-23T07:36:39;19.20;99.90
14473;DHT22;7322;50.872;4.386;2024-02-23T07:39:07;19.20;99.90
14473;DHT22;7322;50.872;4.386;2024-02-23T07:41:34;19.10;99.90
14473;DHT22;7322;50.872;4.386;2024-02-23T07:44:01;19.10;99.90
14473;DHT22;7322;50.872;4.386;2024-02-23T07:46:28;19.10;99.90
14473;DHT22;7322;50.872;4.386;2024-02-23T07:49:01;19.10;99.90
14473;DHT22;7322;50.872;4.386;2024-02-23T07:51:29;19.10;99.90
14473;DHT22;7322;50.872;4.386;2024-02-23T07:53:56;19.00;99.90
14473;DHT22;7322;50.872;4.386;2024-02-23T07:56:23;19.00;99.90
14473;DHT22;7322;50.872;4.386;2024-02-23T07:58:50;19.00;99.90
14473;DHT22;7322;50.872;4.386;2024-02-23T08:01:17;18.90;99.90
14473;DHT22;7322;50.872;4.386;2024-02-23T08:03:44;18.90;99.90
14473;DHT22;7322;50.872;4.386;2024-02-23T08:06:17;18.90;99.90
14473;DHT22;7322;50.872;4.386;2024-02-23T08:08:46;18.90;99.90
14473;DHT22;7322;50.872;4.386;2024-02-23T08:11:15;18.80;99.90
14473;DHT22;7322;50.872;4.386;2024-02-23T08:13:43;18.80;99.90
14473;DHT22;7322;50.872;4.386;2024-02-23T08:16:10;18.80;99.90
14473;DHT22;7322;50.872;4.386;2024-02-23T08:18:37;18.80;99.90
14473;DHT22;7322;50.872;4.386;2024-02-23T08:21:05;18.80;99.90
14473;DHT22;7322;50.872;4.386;2024-02-23T08:23:34;18.80;99.90
14473;DHT22;7322;50.872;4.386;2024-02-23T08:26:02;18.80;99.90
14473;DHT22;7322;50.872;4.386;2024-02-23T08:28:31;18.80;99.90
14473;DHT22;7322;50.872;4.386;2024-02-23T08:30:58;18.70;99.90
14473;DHT22;7322;50.872;4.386;2024-02-23T08:33:26;18.70;99.90
14473;DHT22;7322;50.872;4.386;2024-02-23T08:35:58;18.60;99.90
14473;DHT22;7322;50.872;4.386;2024-02-23T08:38:25;18.60;99.90
14473;DHT22;7322;50.872;4.386;2024-02-23T08:40:52;18.60;99.90
14473;DHT22;7322;50.872;4.386;2024-02-23T08:43:21;18.60;99.90
14473;DHT22;7322;50.872;4.386;2024-02-23T08:45:49;18.60;99.90
14473;DHT22;7322;50.872;4.386;2024-02-23T08:48:16;18.60;99.90
14473;DHT22;7322;50.872;4.386;2024-02-23T08:50:45;18.60;99.90
14473;DHT22;7322;50.872;4.386;2024-02-23T08:53:12;18.60;99.90
14473;DHT22;7322;50.872;4.386;2024-02-23T08:55:39;18.60;99.90
14473;DHT22;7322;50.872;4.386;2024-02-23T08:58:06;18.50;99.90
14473;DHT22;7322;50.872;4.386;2024-02-23T09:00:35;18.60;99.90
14473;DHT22;7322;50.872;4.386;2024-02-23T09:03:02;18.60;99.90
14473;DHT22;7322;50.872;4.386;2024-02-23T09:05:30;18.60;99.90
14473;DHT22;7322;50.872;4.386;2024-02-23T09:07:57;18.50;99.90
14473;DHT22;7322;50.872;4.386;2024-02-23T09:10:25;18.50;99.90
14473;DHT22;7322;50.872;4.386;2024-02-23T09:12:52;18.50;99.90
14473;DHT22;7322;50.872;4.386;2024-02-23T09:15:20;18.50;99.90
14473;DHT22;7322;50.872;4.386;2024-02-23T09:17:55;18.50;99.90
14473;DHT22;7322;50.872;4.386;2024-02-23T09:20:23;18.40;99.90
14473;DHT22;7322;50.872;4.386;2024-02-23T09:22:50;18.40;99.90
14473;DHT22;7322;50.872;4.386;2024-02-23T09:25:18;18.40;99.90
14473;DHT22;7322;50.872;4.386;2024-02-23T09:27:49;18.40;99.90
14473;DHT22;7322;50.872;4.386;2024-02-23T09:30:16;18.40;99.90
14473;DHT22;7322;50.872;4.386;2024-02-23T09:32:43;18.40;99.90
14473;DHT22;7322;50.872;4.386;2024-02-23T09:35:12;18.40;99.90
14473;DHT22;7322;50.872;4.386;2024-02-23T09:37:39;18.40;99.90
14473;DHT22;7322;50.872;4.386;2024-02-23T09:40:10;18.40;99.90
14473;DHT22;7322;50.872;4.386;2024-02-23T09:42:38;18.40;99.90
14473;DHT22;7322;50.872;4.386;2024-02-23T09:45:08;18.30;99.90
14473;DHT22;7322;50.872;4.386;2024-02-23T09:47:38;18.30;99.90
14473;DHT22;7322;50.872;4.386;2024-02-23T09:50:09;18.40;99.90
14473;DHT22;7322;50.872;4.386;2024-02-23T09:52:37;18.30;99.90
14473;DHT22;7322;50.872;4.386;2024-02-23T09:55:06;18.30;99.90
14473;DHT22;7322;50.872;4.386;2024-02-23T09:57:33;18.30;99.90
14473;DHT22;7322;50.872;4.386;2024-02-23T10:00:03;18.30;99.90
14473;DHT22;7322;50.872;4.386;2024-02-23T10:02:32;18.30;99.90
14473;DHT22;7322;50.872;4.386;2024-02-23T10:05:01;18.30;99.90
14473;DHT22;7322;50.872;4.386;2024-02-23T10:07:28;18.30;99.90
14473;DHT22;7322;50.872;4.386;2024-02-23T10:10:00;18.30;99.90
14473;DHT22;7322;50.872;4.386;2024-02-23T10:12:29;18.30;99.90
14473;DHT22;7322;50.872;4.386;2024-02-23T10:14:57;18.20;99.90
14473;DHT22;7322;50.872;4.386;2024-02-23T10:17:24;18.20;99.90
14473;DHT22;7322;50.872;4.386;2024-02-23T10:19:52;18.20;99.90
14473;DHT22;7322;50.872;4.386;2024-02-23T10:22:21;18.20;99.90
14473;DHT22;7322;50.872;4.386;2024-02-23T10:24:50;18.20;99.90
14473;DHT22;7322;50.872;4.386;2024-02-23T10:27:22;18.20;99.90
14473;DHT22;7322;50.872;4.386;2024-02-23T10:29:49;18.20;99.90
14473;DHT22;7322;50.872;4.386;2024-02-23T10:32:18;18.20;99.90
14473;DHT22;7322;50.872;4.386;2024-02-23T10:34:49;18.20;99.90
14473;DHT22;7322;50.872;4.386;2024-02-23T10:37:18;18.20;99.90
14473;DHT22;7322;50.872;4.386;2024-02-23T10:39:46;18.20;99.90
14473;DHT22;7322;50.872;4.386;2024-02-23T10:42:16;18.20;99.90
14473;DHT22;7322;50.872;4.386;2024-02-23T10:44:47;18.10;99.90
14473;DHT22;7322;50.872;4.386;2024-02-23T10:47:14;18.10;99.90
14473;DHT22;7322;50.872;4.386;2024-02-23T10:49:44;18.10;99.90
14473;DHT22;7322;50.872;4.386;2024-02-23T10:52:12;18.10;99.90
14473;DHT22;7322;50.872;4.386;2024-02-23T10:54:40;18.10;99.90
14473;DHT22;7322;50.872;4.386;2024-02-23T10:57:15;18.10;99.90
14473;DHT22;7322;50.872;4.386;2024-02-23T10:59:48;18.10;99.90
14473;DHT22;7322;50.872;4.386;2024-02-23T11:02:17;18.10;99.90
14473;DHT22;7322;50.872;4.386;2024-02-23T11:04:47;18.10;99.90
14473;DHT22;7322;50.872;4.386;2024-02-23T11:07:19;18.10;99.90
14473;DHT22;7322;50.872;4.386;2024-02-23T11:09:49;18.10;99.90
14473;DHT22;7322;50.872;4.386;2024-02-23T11:12:24;18.10;99.90
14473;DHT22;7322;50.872;4.386;2024-02-23T11:14:56;18.10;99.90
14473;DHT22;7322;50.872;4.386;2024-02-23T11:17:30;18.10;99.90
14473;DHT22;7322;50.872;4.386;2024-02-23T11:20:02;18.00;99.90
14473;DHT22;7322;50.872;4.386;2024-02-23T11:22:32;18.00;99.90
14473;DHT22;7322;50.872;4.386;2024-02-23T11:25:01;17.90;99.90
14473;DHT22;7322;50.872;4.386;2024-02-23T11:27:31;18.00;99.90
14473;DHT22;7322;50.872;4.386;2024-02-23T11:30:04;18.00;99.90
14473;DHT22;7322;50.872;4.386;2024-02-23T11:32:39;18.00;99.90
14473;DHT22;7322;50.872;4.386;2024-02-23T11:35:10;18.00;99.90
14473;DHT22;7322;50.872;4.386;2024-02-23T11:37:47;17.90;99.90
14473;DHT22;7322;50.872;4.386;2024-02-23T11:40:15;17.90;99.90
14473;DHT22;7322;50.872;4.386;2024-02-23T11:42:44;17.90;99.90
14473;DHT22;7322;50.872;4.386;2024-02-23T11:45:12;17.90;99.90
14473;DHT22;7322;50.872;4.386;2024-02-23T11:47:45;17.90;99.90
14473;DHT22;7322;50.872;4.386;2024-02-23T11:50:20;17.90;99.90
14473;DHT22;7322;50.872;4.386;2024-02-23T11:52:47;17.90;99.90
14473;DHT22;7322;50.872;4.386;2024-02-23T11:55:18;17.90;99.90
14473;DHT22;7322;50.872;4.386;2024-02-23T11:57:50;17.90;99.90
14473;DHT22;7322;50.872;4.386;2024-02-23T12:00:19;17.90;99.90
14473;DHT22;7322;50.872;4.386;2024-02-23T12:02:47;17.80;99.90
14473;DHT22;7322;50.872;4.386;2024-02-23T12:05:17;17.80;99.90
14473;DHT22;7322;50.872;4.386;2024-02-23T12:07:44;17.90;99.90
14473;DHT22;7322;50.872;4.386;2024-02-23T12:10:21;17.90;99.90
14473;DHT22;7322;50.872;4.386;2024-02-23T12:12:54;17.90;99.90
14473;DHT22;7322;50.872;4.386;2024-02-23T12:15:30;17.90;99.90
14473;DHT22;7322;50.872;4.386;2024-02-23T12:17:58;17.80;99.90
14473;DHT22;7322;50.872;4.386;2024-02-23T12:20:25;17.80;99.90
14473;DHT22;7322;50.872;4.386;2024-02-23T12:22:54;17.80;99.90
14473;DHT22;7322;50.872;4.386;2024-02-23T12:25:22;17.80;99.90
14473;DHT22;7322;50.872;4.386;2024-02-23T12:27:55;17.80;99.90
14473;DHT22;7322;50.872;4.386;2024-02-23T12:30:23;17.70;99.90
14473;DHT22;7322;50.872;4.386;2024-02-23T12:33:03;17.80;99.90
14473;DHT22;7322;50.872;4.386;2024-02-23T12:35:34;17.80;99.90
14473;DHT22;7322;50.872;4.386;2024-02-23T12:38:01;17.80;99.90
14473;DHT22;7322;50.872;4.386;2024-02-23T12:40:28;17.80;99.90
14473;DHT22;7322;50.872;4.386;2024-02-23T12:42:54;17.70;99.90
14473;DHT22;7322;50.872;4.386;2024-02-23T12:45:21;17.80;99.90
14473;DHT22;7322;50.872;4.386;2024-02-23T12:47:49;17.70;99.90
14473;DHT22;7322;50.872;4.386;2024-02-23T12:50:18;17.70;99.90
14473;DHT22;7322;50.872;4.386;2024-02-23T12:52:51;17.70;99.90
14473;DHT22;7322;50.872;4.386;2024-02-23T12:55:18;17.70;99.90
14473;DHT22;7322;50.872;4.386;2024-02-23T12:57:47;17.70;99.90
14473;DHT22;7322;50.872;4.386;2024-02-23T13:00:15;17.70;99.90
14473;DHT22;7322;50.872;4.386;2024-02-23T13:02:42;17.70;99.90
14473;DHT22;7322;50.872;4.386;2024-02-23T13:05:11;17.80;99.90
14473;DHT22;7322;50.872;4.386;2024-02-23T13:07:40;17.70;99.90
14473;DHT22;7322;50.872;4.386;2024-02-23T13:10:14;17.70;99.90
14473;DHT22;7322;50.872;4.386;2024-02-23T13:12:44;17.70;99.90
14473;DHT22;7322;50.872;4.386;2024-02-23T13:15:11;17.70;99.90
14473;DHT22;7322;50.872;4.386;2024-02-23T13:17:38;17.70;99.90
14473;DHT22;7322;50.872;4.386;2024-02-23T13:20:08;17.70;99.90
14473;DHT22;7322;50.872;4.386;2024-02-23T13:22:43;17.70;99.90
14473;DHT22;7322;50.872;4.386;2024-02-23T13:25:10;17.70;99.90
14473;DHT22;7322;50.872;4.386;2024-02-23T13:27:37;17.70;99.90
14473;DHT22;7322;50.872;4.386;2024-02-23T13:30:08;17.60;99.90
14473;DHT22;7322;50.872;4.386;2024-02-23T13:32:36;17.70;99.90
14473;DHT22;7322;50.872;4.386;2024-02-23T13:35:04;17.70;99.90
14473;DHT22;7322;50.872;4.386;2024-02-23T13:37:32;17.80;99.90
14473;DHT22;7322;50.872;4.386;2024-02-23T13:40:00;17.70;99.90
14473;DHT22;7322;50.872;4.386;2024-02-23T13:42:33;17.70;99.90
14473;DHT22;7322;50.872;4.386;2024-02-23T13:45:00;17.70;99.90
14473;DHT22;7322;50.872;4.386;2024-02-23T13:47:27;17.70;99.90
14473;DHT22;7322;50.872;4.386;2024-02-23T13:49:54;17.70;99.90
14473;DHT22;7322;50.872;4.386;2024-02-23T13:52:21;17.70;99.90
14473;DHT22;7322;50.872;4.386;2024-02-23T13:54:48;17.70;99.90
14473;DHT22;7322;50.872;4.386;2024-02-23T13:57:16;17.70;99.90
14473;DHT22;7322;50.872;4.386;2024-02-23T13:59:44;17.70;99.90
14473;DHT22;7322;50.872;4.386;2024-02-23T14:02:12;17.70;99.90
14473;DHT22;7322;50.872;4.386;2024-02-23T14:04:39;17.70;99.90
14473;DHT22;7322;50.872;4.386;2024-02-23T14:07:08;17.70;99.90
14473;DHT22;7322;50.872;4.386;2024-02-23T14:09:36;17.70;99.90
14473;DHT22;7322;50.872;4.386;2024-02-23T14:12:04;17.70;99.90
14473;DHT22;7322;50.872;4.386;2024-02-23T14:14:32;17.70;99.90
14473;DHT22;7322;50.872;4.386;2024-02-23T14:16:59;17.70;99.90
14473;DHT22;7322;50.872;4.386;2024-02-23T14:19:27;17.70;99.90
14473;DHT22;7322;50.872;4.386;2024-02-23T14:21:55;17.70;99.90
14473;DHT22;7322;50.872;4.386;2024-02-23T14:24:23;17.70;99.90
14473;DHT22;7322;50.872;4.386;2024-02-23T14:26:50;17.70;99.90
14473;DHT22;7322;50.872;4.386;2024-02-23T14:29:17;17.70;99.90
14473;DHT22;7322;50.872;4.386;2024-02-23T14:31:46;17.70;99.90
14473;DHT22;7322;50.872;4.386;2024-02-23T14:34:13;17.70;99.90
14473;DHT22;7322;50.872;4.386;2024-02-23T14:36:40;17.70;99.90
14473;DHT22;7322;50.872;4.386;2024-02-23T14:39:14;17.70;99.90
14473;DHT22;7322;50.872;4.386;2024-02-23T14:41:48;17.70;99.90
14473;DHT22;7322;50.872;4.386;2024-02-23T14:44:19;17.70;99.90
14473;DHT22;7322;50.872;4.386;2024-02-23T14:46:48;17.70;99.90
14473;DHT22;7322;50.872;4.386;2024-02-23T14:49:15;17.70;99.90
14473;DHT22;7322;50.872;4.386;2024-02-23T14:51:43;17.60;99.90
14473;DHT22;7322;50.872;4.386;2024-02-23T14:54:12;17.70;99.90
14473;DHT22;7322;50.872;4.386;2024-02-23T14:56:40;17.70;99.90
14473;DHT22;7322;50.872;4.386;2024-02-23T14:59:10;17.70;99.90
14473;DHT22;7322;50.872;4.386;2024-02-23T15:01:58;17.70;99.90
14473;DHT22;7322;50.872;4.386;2024-02-23T15:04:25;17.70;99.90
14473;DHT22;7322;50.872;4.386;2024-02-23T15:06:53;17.80;99.90
14473;DHT22;7322;50.872;4.386;2024-02-23T15:09:20;17.80;99.90
14473;DHT22;7322;50.872;4.386;2024-02-23T15:11:55;17.80;99.90
14473;DHT22;7322;50.872;4.386;2024-02-23T15:14:22;17.80;99.90
14473;DHT22;7322;50.872;4.386;2024-02-23T15:16:48;17.90;99.90
14473;DHT22;7322;50.872;4.386;2024-02-23T15:19:17;17.90;99.90
14473;DHT22;7322;50.872;4.386;2024-02-23T15:21:44;17.80;99.90
14473;DHT22;7322;50.872;4.386;2024-02-23T15:24:11;17.90;99.90
14473;DHT22;7322;50.872;4.386;2024-02-23T15:26:41;17.80;99.90
14473;DHT22;7322;50.872;4.386;2024-02-23T15:29:07;17.80;99.90
14473;DHT22;7322;50.872;4.386;2024-02-23T15:31:34;17.80;99.90
14473;DHT22;7322;50.872;4.386;2024-02-23T15:34:03;17.80;99.90
14473;DHT22;7322;50.872;4.386;2024-02-23T15:36:31;17.70;99.90
14473;DHT22;7322;50.872;4.386;2024-02-23T15:38:58;17.80;99.90
14473;DHT22;7322;50.872;4.386;2024-02-23T15:41:36;17.70;99.90
14473;DHT22;7322;50.872;4.386;2024-02-23T15:44:03;17.80;99.90
14473;DHT22;7322;50.872;4.386;2024-02-23T15:46:31;17.70;99.90
14473;DHT22;7322;50.872;4.386;2024-02-23T15:48:58;17.70;99.90
14473;DHT22;7322;50.872;4.386;2024-02-23T15:51:25;17.70;99.90
14473;DHT22;7322;50.872;4.386;2024-02-23T15:53:54;17.70;99.90
14473;DHT22;7322;50.872;4.386;2024-02-23T15:56:24;17.70;99.90